Αναφορές METAR από Ελληνικά Αεροδρόμια

Σε αυτή τη σελίδα, μπορείτε να παρακολουθείτε τις αναφορές METAR που προέρχονται από τα κυριότερα αεροδρόμια της Ελλάδας. Το περιεχόμενο αποκωδικοποιείται, οπτικοποιείται και γίνεται κατανοητό από τον καθένα με τη χρήση του όμορφου δίγλωσσου γραφικού περιβάλλοντος του meteothes.gr!

Η αρχική κωδικοποιημένη αναφορά, συμπεριλαμβάνεται επίσης στο κάτω μέρος. Σε όποια καθεστερεί η ενημέρωση, το προειδοποιητικό μήνυμα "Μη ενημερωμένο METAR!" εμφανίζεται στο πάνω μέρος της με κόκκινα γράμματα.

Εχουν προστεθεί επίσης δύο αεροδρόμια από γειτονικές χώρες, την Οχρίδα(ΠΓΔΜ) και την Σόφια(Βουλγαρία) για να ελέγχουμε την εξέλιξη των ψυχρών εισβολών από τα Βόρεια!

LGTS - Thessaloniki/Makedonia-Elev 7m
Απόσταση από meteothes.gr: Ν 13km
Ενημερώθηκε: 20/01/2018 08:50
Διάσπαρτα Nέφη
Διάσπαρτα Nέφη
 Ανεμος από μεταβλητός
Ανεμος: μεταβλητός 6 km/h
Θερμοκρασία: 2°C
Σημ. Δρόσου: -1°C
Υγρασία: 81%
Βαρόμετρο: 1013 hPa
Νέφωση: Διάσπαρτα Nέφη
Ορατότητα: 10 km
Λεπτομέρειες Νεφών: Διάσπαρτα Nέφη 762 m
2018/01/20 06:50 LGTS 200650Z VRB03KT 9999 FEW025 02/M01 Q1013 NOSIG
LGAV - Athens/Elef. Venizelos-Elev 94m
Απόσταση από meteothes.gr: ΝΝΑ 312km
Ενημερώθηκε: 20/01/2018 08:50
Διάσπαρτα Nέφη
Διάσπαρτα Nέφη
 Ανεμος από μεταβλητός
Ανεμος: μεταβλητός 2 km/h
Θερμοκρασία: 12°C
Σημ. Δρόσου: 7°C
Υγρασία: 72%
Βαρόμετρο: 1016 hPa
Νέφωση: Διάσπαρτα Nέφη
Ορατότητα: 10 km
Λεπτομέρειες Νεφών: Διάσπαρτα Nέφη 762 m
2018/01/20 06:50 LGAV 200650Z VRB01KT 9999 FEW025 12/07 Q1016 NOSIG
 
LGAL - Alexandroupolis-Elev 3m
Απόσταση από meteothes.gr: Α 251km
Ενημερώθηκε: 20/01/2018 08:50
Διάσπαρτα Nέφη
Διάσπαρτα Nέφη
 Ανεμος από άπνοια
Ανεμος: άπνοια
Θερμοκρασία: 6°C
Σημ. Δρόσου: 5°C
Υγρασία: 93%
Βαρόμετρο: 1013 hPa
Νέφωση: Διάσπαρτα Nέφη
Ορατότητα: 10 km
Λεπτομέρειες Νεφών: Διάσπαρτα Nέφη 762 m
2018/01/20 06:50 LGAL 200650Z 00000KT 9999 FEW025 06/05 Q1013
LGKV - Kavala/Crysoupolis-Elev 5m
Απόσταση από meteothes.gr: ΑΒΑ 144km
Ενημερώθηκε: 20/01/2018 08:50
Αίθριος
Αίθριος
 Ανεμος από Β
Ανεμος: Β 7 km/h
Θερμοκρασία: 1°C
Αίσθηση Ψύχρας: -2°C
Σημ. Δρόσου: -1°C
Υγρασία: 87%
Βαρόμετρο: 1013 hPa
Συνθήκες: Αίθριος
Ορατότητα: πάνω από 10 km
2018/01/20 06:50 LGKV 200650Z 01004KT CAVOK 01/M01 Q1013
 
LGSK - Skiathos Island-Elev 15m
Απόσταση από meteothes.gr: ΝΝΑ 168km
Ενημερώθηκε: 19/01/2018 19:50
ΜΗ Ενημερωμένο METAR!
Αίθριος
Αίθριος
 Ανεμος από Ν
Ανεμος: Ν 7 km/h
Θερμοκρασία: 8°C
Αίσθηση Ψύχρας: 7°C
Σημ. Δρόσου: 3°C
Υγρασία: 71%
Βαρόμετρο: 1014 hPa
Συνθήκες: Αίθριος
Ορατότητα: πάνω από 10 km
2018/01/19 17:50 LGSK 191750Z 19004KT CAVOK 08/03 Q1014
LGLM - Limnos Island-Elev 5m
Απόσταση από meteothes.gr: ΑΝΑ 210km
Ενημερώθηκε: 20/01/2018 08:50
Διάσπαρτα Nέφη
Διάσπαρτα Nέφη
 Ανεμος από άπνοια
Ανεμος: άπνοια
Θερμοκρασία: 8°C
Σημ. Δρόσου: 6°C
Υγρασία: 87%
Βαρόμετρο: 1014 hPa
Νέφωση: Διάσπαρτα Nέφη
Ορατότητα: 10 km
Λεπτομέρειες Νεφών: Διάσπαρτα Nέφη 762 m
2018/01/20 06:50 LGLM 200650Z 00000KT 9999 FEW025 08/06 Q1014
 
LGMT - Mitilini Island-Elev 17m
Απόσταση από meteothes.gr: ΑΝΑ 358km
Ενημερώθηκε: 20/01/2018 08:50
Διάσπαρτα Nέφη
Διάσπαρτα Nέφη
 Ανεμος από Ν
Ανεμος: Ν 13 km/h
Θερμοκρασία: 10°C
Αίσθηση Ψύχρας: 8°C
Σημ. Δρόσου: 2°C
Υγρασία: 58%
Βαρόμετρο: 1017 hPa
Νέφωση: Διάσπαρτα Nέφη
Ορατότητα: 10 km
Λεπτομέρειες Νεφών: Διάσπαρτα Nέφη 610 m
2018/01/20 06:50 LGMT 200650Z 19007KT 130V220 9999 FEW020 10/02 Q1017
LGSY - Skiros Island-Elev 15m
Απόσταση από meteothes.gr: ΝΑ 227km
Ενημερώθηκε: 20/01/2018 08:50
Διάσπαρτα Nέφη
Διάσπαρτα Nέφη
 Ανεμος από Ν
Ανεμος: Ν 20 km/h
Θερμοκρασία: 13°C
Σημ. Δρόσου: 9°C
Υγρασία: 77%
Βαρόμετρο: 1012 hPa
Νέφωση: Διάσπαρτα Nέφη
Ορατότητα: 10 km
Λεπτομέρειες Νεφών: Διάσπαρτα Nέφη 914 m
2018/01/20 06:50 LGSY 200650Z 17011KT 9999 FEW030 13/09 Q1012 RMK FEW080 BKN180 BLU
 
LGKZ - Kozani-Elev 628m
Απόσταση από meteothes.gr: ΔΝΔ 102km
Ενημερώθηκε: 20/01/2018 08:50
κυρίως νεφελώδης
κυρίως νεφελώδης
 Ανεμος από άπνοια
Ανεμος: άπνοια
Θερμοκρασία: 5°C
Σημ. Δρόσου: 1°C
Υγρασία: 76%
Βαρόμετρο: 1012 hPa
Νέφωση: κυρίως νεφελώδης
Ορατότητα: 10 km
Λεπτομέρειες Νεφών: Διάσπαρτα Nέφη 610 m
κυρίως νεφελώδης 2134 m
2018/01/20 06:50 LGKZ 200650Z 00000KT 9999 FEW020 BKN070 05/01 Q1012
LGIO - Ioannina-Elev 476m
Απόσταση από meteothes.gr: ΔΝΔ 209km
Ενημερώθηκε: 20/01/2018 08:50
Ασθενής βροχή, Αχλύς, Συννεφιά
Ασθενής βροχή, Αχλύς, Συννεφιά
 Ανεμος από μεταβλητός
Ανεμος: μεταβλητός 0 km/h
Θερμοκρασία: 7°C
Σημ. Δρόσου: 7°C
Υγρασία: 100%
Βαρόμετρο: 1014 hPa
Συνθήκες: Ασθενής βροχή, Αχλύς
Νέφωση: Συννεφιά
Ορατότητα: 3 km
Λεπτομέρειες Νεφών: Συννεφιά 610 m
2018/01/20 06:50 LGIO 200650Z /////KT 2500 -RA BR OVC020 07/07 Q1014
 
LGZA - Zakinthos-Elev 3m
Απόσταση από meteothes.gr: ΝΝΔ 367km
Ενημερώθηκε: 20/01/2018 08:50
Συννεφιά
Συννεφιά
 Ανεμος από Ν
Ανεμος: Ν 9 km/h
Θερμοκρασία: 12°C
Σημ. Δρόσου: 10°C
Υγρασία: 88%
Βαρόμετρο: 1015 hPa
Νέφωση: Συννεφιά
Ορατότητα: 6 km
Λεπτομέρειες Νεφών: Μερικώς νεφελώδης 366 m
κυρίως νεφελώδης 610 m
Συννεφιά 2134 m
2018/01/20 06:50 LGZA 200650Z 19005KT 6000 SCT012 BKN020 OVC070 12/10 Q1015
LGKR - Corfu Island-Elev 2m
Απόσταση από meteothes.gr: ΔΝΔ 282km
Ενημερώθηκε: 20/01/2018 08:50
κυρίως νεφελώδης
κυρίως νεφελώδης
 Ανεμος από ΝΝΑ
Ανεμος: ΝΝΑ 13 km/h
Θερμοκρασία: 13°C
Σημ. Δρόσου: 12°C
Υγρασία: 94%
Βαρόμετρο: 1014 hPa
Νέφωση: κυρίως νεφελώδης
Ορατότητα: 10 km
Λεπτομέρειες Νεφών: Μερικώς νεφελώδης 457 m
κυρίως νεφελώδης 914 m
2018/01/20 06:50 LGKR 200650Z 16007KT 9999 SCT015 BKN030 13/12 Q1014 NOSIG
 
LGSO - Syros Island-Elev 72m
Απόσταση από meteothes.gr: ΝΝΑ 397km
Ενημερώθηκε: 20/01/2018 08:50
Διάσπαρτα Nέφη
Διάσπαρτα Nέφη
 Ανεμος από ΔΝΔ
Ανεμος: ΔΝΔ 22 km/h
Θερμοκρασία: 14°C
Σημ. Δρόσου: 9°C
Υγρασία: 72%
Βαρόμετρο: 1016 hPa
Νέφωση: Διάσπαρτα Nέφη
Ορατότητα: 10 km
Λεπτομέρειες Νεφών: Διάσπαρτα Nέφη 549 m
2018/01/20 06:50 LGSO 200650Z 24012KT 9999 FEW018 14/09 Q1016
LGMK - Mikonos Island-Elev 123m
Απόσταση από meteothes.gr: ΝΝΑ 412km
Ενημερώθηκε: 20/01/2018 08:50
Διάσπαρτα Nέφη
Διάσπαρτα Nέφη
 Ανεμος από ΝΝΔ
Ανεμος: ΝΝΔ 11 km/h
Θερμοκρασία: 14°C
Σημ. Δρόσου: 9°C
Υγρασία: 72%
Βαρόμετρο: 1016 hPa
Νέφωση: Διάσπαρτα Nέφη
Ορατότητα: 10 km
Λεπτομέρειες Νεφών: Διάσπαρτα Nέφη 488 m
2018/01/20 06:50 LGMK 200650Z 21006KT 9999 FEW016 14/09 Q1016
 
LGSR - Santorini Island-Elev 40m
Απόσταση από meteothes.gr: ΝΝΑ 520km
Ενημερώθηκε: 20/01/2018 08:50
κυρίως νεφελώδης
κυρίως νεφελώδης
 Ανεμος από ΔΝΔ
Ανεμος: ΔΝΔ 22 km/h
Θερμοκρασία: 16°C
Σημ. Δρόσου: 9°C
Υγρασία: 63%
Βαρόμετρο: 1018 hPa
Νέφωση: κυρίως νεφελώδης
Ορατότητα: 10 km
Λεπτομέρειες Νεφών: κυρίως νεφελώδης 762 m
2018/01/20 06:50 LGSR 200650Z 24012KT 9999 BKN025 16/09 Q1018
LGKL - Kalamata-Elev 8m
Απόσταση από meteothes.gr: Ν 405km
Ενημερώθηκε: 20/01/2018 08:50
Αχλύς, κυρίως νεφελώδης
Αχλύς, κυρίως νεφελώδης
 Ανεμος από άπνοια
Ανεμος: άπνοια
Θερμοκρασία: 11°C
Σημ. Δρόσου: 8°C
Υγρασία: 82%
Βαρόμετρο: 1017 hPa
Συνθήκες: Αχλύς
Νέφωση: κυρίως νεφελώδης
Ορατότητα: 3 km
Λεπτομέρειες Νεφών: Μερικώς νεφελώδης 762 m
Μερικώς νεφελώδης 1067 m
κυρίως νεφελώδης 2438 m
2018/01/20 06:50 LGKL 200650Z 00000KT 2500 BR SCT025 SCT035 BKN080 11/08 Q1017
 
LGIR - Iraklion/Crete-Elev 5m
Απόσταση από meteothes.gr: ΝΝΑ 622km
Ενημερώθηκε: 20/01/2018 08:50
Διάσπαρτα Nέφη
Διάσπαρτα Nέφη
 Ανεμος από ΝΝΑ
Ανεμος: ΝΝΑ 17 km/h
Θερμοκρασία: 13°C
Σημ. Δρόσου: 8°C
Υγρασία: 72%
Βαρόμετρο: 1018 hPa
Νέφωση: Διάσπαρτα Nέφη
Ορατότητα: 10 km
Λεπτομέρειες Νεφών: Διάσπαρτα Nέφη 762 m
2018/01/20 06:50 LGIR 200650Z 16009KT 9999 FEW025 13/08 Q1018 NOSIG
LGRP - Rhodes-Elev 5m
Απόσταση από meteothes.gr: ΝΑ 649km
Ενημερώθηκε: 20/01/2018 08:50
Ασθενές ψιλόβροχο, κυρίως νεφελώδης
Ασθενές ψιλόβροχο, κυρίως νεφελώδης
 Ανεμος από Α
Ανεμος: Α 7 km/h
Θερμοκρασία: 12°C
Σημ. Δρόσου: 8°C
Υγρασία: 77%
Βαρόμετρο: 1019 hPa
Συνθήκες: Light Drizzle
Νέφωση: κυρίως νεφελώδης
Ορατότητα: 10 km
Λεπτομέρειες Νεφών: Διάσπαρτα Nέφη 549 m
κυρίως νεφελώδης 762 m
2018/01/20 06:50 LGRP 200650Z 09004KT 9999 -DZ FEW018 BKN025 12/08 Q1019 NOSIG
 
LWOH - Ohrid/FYROM-Elev 761m
Απόσταση από meteothes.gr: ΔΒΔ 188km
Ενημερώθηκε: 20/01/2018 09:00
κυρίως νεφελώδης
κυρίως νεφελώδης
 Ανεμος από ΝΝΑ
Ανεμος: ΝΝΑ 6 km/h
Θερμοκρασία: 6°C
Σημ. Δρόσου: 2°C
Υγρασία: 76%
Βαρόμετρο: 1011 hPa
Νέφωση: κυρίως νεφελώδης
Ορατότητα: 10 km
Λεπτομέρειες Νεφών: Διάσπαρτα Nέφη 305 m
κυρίως νεφελώδης 1219 m
2018/01/20 07:00 LWOH 200700Z 15003KT 9999 FEW010 BKN040 06/02 Q1011
LBSF - Sofia/Bulgaria-Elev 595m
Απόσταση από meteothes.gr: Β 227km
Ενημερώθηκε: 20/01/2018 09:00
Μερικώς νεφελώδης
Μερικώς νεφελώδης
 Ανεμος από ΒΑ
Ανεμος: ΒΑ 6 km/h
Θερμοκρασία: 0°C
Σημ. Δρόσου: -1°C
Υγρασία: 93%
Βαρόμετρο: 1011 hPa
Νέφωση: Μερικώς νεφελώδης
Ορατότητα: 6 km
Λεπτομέρειες Νεφών: Διάσπαρτα Nέφη 1676 m
Μερικώς νεφελώδης 1981 m
2018/01/20 07:00 LBSF 200700Z 04003KT 360V100 6000 FEW055 SCT065 00/M01 Q1011 TEMPO 5000 BR

(*) Μερικές αναφορές παρουσιάζουν λιγότερα στοιχεία γιατί οι αρχικές είναι ελλιπείς ή έχουν λάθος μορφοποίηση!